Rio Blanco — D5BO9 — position and weather

sailwx.info

Track history (hours):
 
Tides and Currents Weather Stations Pressure Air Temp Water Temp Dewpoint Dewpoint Depression Visibility Wind Speed Wind Dir Waves Ship Positions

Rio Blanco

Last reported at 2016-Jul-25 17:33 UTC. Time now 2016-Jul-25 17:53 UTC.
Position N 36°09' W 005°25'.

Length 286 m; draft 10.2 m.

Type: Ship (hazmat cat A). MMSI: 636092395.

Date/timePositionNaut miles runAvg speedWind from/ knotsBaromVisibWave heightAir tempDewpointWater temp
2016-Jul-25 17:33N 36°09' W 005°25'1 1.1
2016-Jul-25 16:31N 36°09' W 005°26'0 0.0
2016-Jul-25 15:28N 36°09' W 005°26'0 0.0
2016-Jul-25 14:31N 36°09' W 005°26'0 0.0
2016-Jul-25 13:31N 36°09' W 005°26'0 0.0
2016-Jul-25 12:31N 36°09' W 005°26'1 1.0
2016-Jul-25 11:33N 36°09' W 005°25'0 0.3
2016-Jul-25 10:28N 36°09' W 005°25'0 0.0
2016-Jul-25 09:31N 36°09' W 005°25'0 0.0
2016-Jul-25 08:31N 36°09' W 005°25'0 0.1
2016-Jul-25 07:31N 36°10' W 005°25'0 0.0
2016-Jul-25 06:28N 36°10' W 005°25'0 0.1
2016-Jul-25 05:28N 36°09' W 005°25'6 7.1
2016-Jul-25 04:34N 36°03' W 005°22'1110.8
2016-Jul-25 03:33N 35°57' W 005°33'3012.8
2016-Jul-25 01:14N 35°53' W 006°09'12 9.8
2016-Jul-25 00:00N 35°54' W 006°24'3915.6 080 / 341013.0 5.4 24.320.0
2016-Jul-24 21:31N 36°06' W 007°10'4414.3
2016-Jul-24 18:25N 36°18' W 008°02'1213.9
2016-Jul-24 17:33N 36°21' W 008°17'4213.8
2016-Jul-24 14:29N 36°31' W 009°08'1413.3
2016-Jul-24 13:29N 36°37' W 009°23'1313.7
2016-Jul-24 12:33N 36°47' W 009°32'1614.0
2016-Jul-24 11:26N 37°03' W 009°37'1213.9
2016-Jul-24 10:33N 37°15' W 009°41'1414.1
2016-Jul-24 09:33N 37°28' W 009°45'1413.9
2016-Jul-24 08:33N 37°42' W 009°48'1413.8
2016-Jul-24 07:33N 37°55' W 009°53'1313.4
2016-Jul-24 06:33N 38°08' W 009°56'1313.5
2016-Jul-24 05:33N 38°22' W 009°60'1313.4
2016-Jul-24 04:33N 38°35' W 010°04'1313.3
2016-Jul-24 03:33N 38°48' W 010°05'1313.1
2016-Jul-24 02:33N 39°01' W 010°06'1313.0
2016-Jul-24 01:33N 39°14' W 010°05'1313.4
2016-Jul-24 00:33N 39°27' W 010°05'33213.5
2016-Jul-23 00:00N 44°54' W 008°48'28114.5 350 / 121026.010.8 19.1
2016-Jul-22 04:33N 49°01' W 005°30'1312.7
2016-Jul-22 03:33N 49°07' W 005°13'1513.5
2016-Jul-22 02:27N 49°15' W 004°53'1314.7
2016-Jul-22 01:33N 49°21' W 004°36'1515.6
2016-Jul-22 00:33N 49°29' W 004°15'1017.2
2016-Jul-22 00:00N 49°30' W 004°00'818.0 170 / 101018.410.8 17.312.4
2016-Jul-21 23:33N 49°37' W 003°54'1514.9
2016-Jul-21 22:33N 49°44' W 003°34'1413.8
2016-Jul-21 21:33N 49°51' W 003°16'1312.6
2016-Jul-21 20:33N 49°58' W 002°59'1212.2
2016-Jul-21 19:34N 50°02' W 002°41'1312.5
2016-Jul-21 18:34N 50°05' W 002°22'1413.8
2016-Jul-21 17:33N 50°08' W 002°01'1615.8
2016-Jul-21 16:33N 50°12' W 001°37'1717.0
2016-Jul-21 15:33N 50°16' W 001°12'1717.2
2016-Jul-21 14:33N 50°21' W 000°46'1616.1
2016-Jul-21 13:33N 50°25' W 000°21'1514.9
2016-Jul-21 12:33N 50°29' E 000°01'1413.8
2016-Jul-21 11:33N 50°32' E 000°22'1312.9
2016-Jul-21 10:33N 50°38' E 000°41'1413.3
2016-Jul-21 09:32N 50°46' E 000°58'1515.0
2016-Jul-21 08:31N 50°55' E 001°18'1617.3
2016-Jul-21 07:34N 51°07' E 001°36'1616.2
2016-Jul-21 06:34N 51°20' E 001°51'1414.3
2016-Jul-21 05:33N 51°32' E 002°02'1313.3
2016-Jul-21 04:33N 51°42' E 002°16'1312.8
2016-Jul-21 03:33N 51°51' E 002°31'1312.5
2016-Jul-21 02:33N 52°01' E 002°45'1312.7
2016-Jul-21 01:33N 52°10' E 002°58'1313.5
2016-Jul-21 00:33N 52°21' E 003°10'1514.8
2016-Jul-20 23:33N 52°33' E 003°24'1515.4
2016-Jul-20 22:33N 52°45' E 003°41'1715.4
2016-Jul-20 21:29N 52°57' E 003°60'1414.6
2016-Jul-20 20:31N 53°07' E 004°17'1513.4
2016-Jul-20 19:25N 53°19' E 004°30'1112.5
2016-Jul-20 18:33N 53°28' E 004°40'1212.4
2016-Jul-20 17:34N 53°34' E 004°58'1313.1
2016-Jul-20 16:33N 53°39' E 005°19'1514.9
2016-Jul-20 15:33N 53°43' E 005°43'1616.0
2016-Jul-20 14:33N 53°47' E 006°09'1616.0
2016-Jul-20 13:33N 53°52' E 006°35'1515.5
2016-Jul-20 12:33N 53°56' E 007°01'1514.6
2016-Jul-20 11:33N 53°59' E 007°25'1413.6
2016-Jul-20 10:33N 54°01' E 007°48'1313.5
2016-Jul-20 09:34N 54°00' E 008°10'1312.7
2016-Jul-20 08:33N 53°58' E 008°32'1313.3
2016-Jul-20 07:33N 53°50' E 008°50'1414.5
2016-Jul-20 06:34N 53°53' E 009°14'1514.7
2016-Jul-20 05:33N 53°41' E 009°30'1111.2
2016-Jul-20 04:34N 53°34' E 009°44'7 6.7
2016-Jul-20 03:33N 53°32' E 009°55'0 0.0
2016-Jul-20 02:33N 53°32' E 009°55'0 0.0
2016-Jul-20 01:33N 53°32' E 009°55'0 0.0
2016-Jul-20 00:33N 53°32' E 009°55'0 0.0
2016-Jul-19 23:33N 53°32' E 009°55'0 0.0
2016-Jul-19 22:33N 53°32' E 009°55'0 0.0
2016-Jul-19 21:33N 53°32' E 009°55'0 0.0
2016-Jul-19 20:33N 53°32' E 009°55'0 0.0
2016-Jul-19 19:33N 53°32' E 009°55'0 0.0
2016-Jul-19 18:33N 53°32' E 009°55'0 0.0
2016-Jul-19 17:33N 53°32' E 009°55'0 0.0
2016-Jul-19 16:33N 53°32' E 009°55'0 0.0
2016-Jul-19 15:33N 53°32' E 009°55'0 0.0
2016-Jul-19 14:33N 53°32' E 009°55'0 0.0
2016-Jul-19 13:33N 53°32' E 009°55'0 0.0
2016-Jul-19 12:33N 53°32' E 009°55'0 0.0
2016-Jul-19 11:33N 53°32' E 009°55'0 0.0
2016-Jul-19 10:33N 53°32' E 009°55'0 0.0
2016-Jul-19 09:33N 53°32' E 009°55'0 0.0
2016-Jul-19 08:33N 53°32' E 009°55'0 0.0
2016-Jul-19 07:33N 53°32' E 009°55'0 0.1
2016-Jul-19 04:33N 53°32' E 009°55'6 5.9
2016-Jul-19 03:33N 53°34' E 009°45'1010.3
2016-Jul-19 02:33N 53°40' E 009°31'1312.7
2016-Jul-19 01:34N 53°51' E 009°20'1111.0
2016-Jul-19 00:34N 53°51' E 009°01'1111.0
2016-Jul-18 23:33N 53°53' E 008°43'1312.7
2016-Jul-18 22:33N 53°59' E 008°24'1111.2
2016-Jul-18 21:33N 53°60' E 008°05'3 2.6
2016-Jul-18 20:32N 54°02' E 008°07'0 0.0
2016-Jul-18 19:32N 54°02' E 008°07'0 0.0
2016-Jul-18 18:32N 54°02' E 008°07'1 1.4
2016-Jul-18 17:33N 54°02' E 008°05'1010.2
2016-Jul-18 16:34N 53°58' E 007°49'10 9.8
2016-Jul-18 15:34N 53°55' E 007°33'10 9.5
2016-Jul-18 14:33N 53°53' E 007°17'10 9.6
2016-Jul-18 13:33N 53°51' E 007°01'9 9.4
2016-Jul-18 12:33N 53°49' E 006°46'10 9.5
2016-Jul-18 11:33N 53°47' E 006°30'10 9.8
2016-Jul-18 10:34N 53°44' E 006°14'10 9.9
2016-Jul-18 09:34N 53°41' E 005°58'1010.4
2016-Jul-18 08:34N 53°37' E 005°42'1010.5
2016-Jul-18 07:34N 53°34' E 005°25'10 9.8
2016-Jul-18 06:34N 53°31' E 005°09'1010.4
2016-Jul-18 05:34N 53°27' E 004°53'1110.5
2016-Jul-18 04:34N 53°20' E 004°40'1212.1
2016-Jul-18 03:33N 53°10' E 004°29'1414.0
2016-Jul-18 02:34N 52°57' E 004°18'1414.2
2016-Jul-18 01:33N 52°45' E 004°07'1414.0
2016-Jul-18 00:33N 52°35' E 003°51'1413.7
2016-Jul-17 23:34N 52°25' E 003°35'1312.7
2016-Jul-17 22:33N 52°13' E 003°28'1212.2
2016-Jul-17 21:33N 52°01' E 003°24'1211.6
2016-Jul-17 20:33N 51°50' E 003°20'9 9.3
2016-Jul-17 19:33N 51°41' E 003°14'1313.5
2016-Jul-17 18:33N 51°30' E 003°03'10 9.7
2016-Jul-17 17:33N 51°25' E 003°17'1413.9
2016-Jul-17 16:33N 51°26' E 003°39'1211.9
2016-Jul-17 15:34N 51°25' E 003°58'1111.2
2016-Jul-17 14:33N 51°21' E 004°15'4 3.7
2016-Jul-17 13:33N 51°18' E 004°16'0 0.0
2016-Jul-17 12:33N 51°18' E 004°16'0 0.0
2016-Jul-17 11:33N 51°18' E 004°16'0 0.0
2016-Jul-17 10:33N 51°18' E 004°16'0 0.0
2016-Jul-17 09:33N 51°18' E 004°16'0 0.0
2016-Jul-17 08:33N 51°18' E 004°16'0 0.0
2016-Jul-17 07:30N 51°18' E 004°16'0 0.0
2016-Jul-17 06:33N 51°18' E 004°16'0 0.0
2016-Jul-17 04:33N 51°18' E 004°16'0 0.0
2016-Jul-17 03:33N 51°18' E 004°16'0 0.0
2016-Jul-17 02:33N 51°18' E 004°16'0 0.0
2016-Jul-17 01:33N 51°18' E 004°16'0 0.0
2016-Jul-17 00:33N 51°18' E 004°16'0 0.0
2016-Jul-16 23:33N 51°18' E 004°16'0 0.0
2016-Jul-16 22:33N 51°18' E 004°16'0 0.0
2016-Jul-16 21:33N 51°18' E 004°16'0 0.0
2016-Jul-16 20:33N 51°18' E 004°16'0 0.0
2016-Jul-16 19:33N 51°18' E 004°16'0 0.0
2016-Jul-16 18:33N 51°18' E 004°16'0 0.0
2016-Jul-16 17:33N 51°18' E 004°16'0 0.0
2016-Jul-16 16:33N 51°18' E 004°16'0 0.3
2016-Jul-16 15:34N 51°18' E 004°16'6 5.9
2016-Jul-16 14:33N 51°23' E 004°13'9 9.2
2016-Jul-16 13:33N 51°26' E 003°58'9 8.9
2016-Jul-16 12:34N 51°22' E 003°45'1312.6
2016-Jul-16 11:34N 51°25' E 003°26'1716.8
2016-Jul-16 10:33N 51°23' E 002°59'1212.3
2016-Jul-16 09:33N 51°22' E 002°39'1212.1
2016-Jul-16 08:33N 51°20' E 002°20'1615.5
2016-Jul-16 07:34N 51°25' E 001°57'1817.6
2016-Jul-16 06:34N 51°41' E 001°45'2311.3
2016-Jul-16 04:33N 51°57' E 001°19'1 1.3
2016-Jul-16 03:33N 51°58' E 001°17'0 0.0
2016-Jul-16 02:32N 51°58' E 001°17'0 0.0
2016-Jul-16 01:32N 51°58' E 001°17'0 0.0
2016-Jul-16 00:32N 51°58' E 001°17'0 0.0
2016-Jul-15 23:32N 51°58' E 001°17'0 0.0
2016-Jul-15 22:32N 51°58' E 001°17'0 0.0
2016-Jul-15 21:32N 51°58' E 001°17'0 0.0
2016-Jul-15 20:32N 51°58' E 001°17'0 0.0
2016-Jul-15 19:29N 51°58' E 001°17'0 0.0
2016-Jul-15 18:32N 51°58' E 001°17'  
Track history (hours):
 
Tides and Currents Weather Stations Pressure Air Temp Water Temp Dewpoint Dewpoint Depression Visibility Wind Speed Wind Dir Waves Ship Positions

Rio Blanco

Last reported at 2016-Jul-25 17:33 UTC. Time now 2016-Jul-25 17:53 UTC.
Position N 36°09' W 005°25'.

Length 286 m; draft 10.2 m.

Type: Ship (hazmat cat A). MMSI: 636092395.

Date/timePositionNaut miles runAvg speedWind from/ knotsBaromVisibWave heightAir tempDewpointWater temp
2016-Jul-25 17:33N 36°09' W 005°25'1 1.1
2016-Jul-25 16:31N 36°09' W 005°26'0 0.0
2016-Jul-25 15:28N 36°09' W 005°26'0 0.0
2016-Jul-25 14:31N 36°09' W 005°26'0 0.0
2016-Jul-25 13:31N 36°09' W 005°26'0 0.0
2016-Jul-25 12:31N 36°09' W 005°26'1 1.0
2016-Jul-25 11:33N 36°09' W 005°25'0 0.3
2016-Jul-25 10:28N 36°09' W 005°25'0 0.0
2016-Jul-25 09:31N 36°09' W 005°25'0 0.0
2016-Jul-25 08:31N 36°09' W 005°25'0 0.1
2016-Jul-25 07:31N 36°10' W 005°25'0 0.0
2016-Jul-25 06:28N 36°10' W 005°25'0 0.1
2016-Jul-25 05:28N 36°09' W 005°25'6 7.1
2016-Jul-25 04:34N 36°03' W 005°22'1110.8
2016-Jul-25 03:33N 35°57' W 005°33'3012.8
2016-Jul-25 01:14N 35°53' W 006°09'12 9.8
2016-Jul-25 00:00N 35°54' W 006°24'3915.6 080 / 341013.0 5.4 24.320.0
2016-Jul-24 21:31N 36°06' W 007°10'4414.3
2016-Jul-24 18:25N 36°18' W 008°02'1213.9
2016-Jul-24 17:33N 36°21' W 008°17'4213.8
2016-Jul-24 14:29N 36°31' W 009°08'1413.3
2016-Jul-24 13:29N 36°37' W 009°23'1313.7
2016-Jul-24 12:33N 36°47' W 009°32'1614.0
2016-Jul-24 11:26N 37°03' W 009°37'1213.9
2016-Jul-24 10:33N 37°15' W 009°41'1414.1
2016-Jul-24 09:33N 37°28' W 009°45'1413.9
2016-Jul-24 08:33N 37°42' W 009°48'1413.8
2016-Jul-24 07:33N 37°55' W 009°53'1313.4
2016-Jul-24 06:33N 38°08' W 009°56'1313.5
2016-Jul-24 05:33N 38°22' W 009°60'1313.4
2016-Jul-24 04:33N 38°35' W 010°04'1313.3
2016-Jul-24 03:33N 38°48' W 010°05'1313.1
2016-Jul-24 02:33N 39°01' W 010°06'1313.0
2016-Jul-24 01:33N 39°14' W 010°05'1313.4
2016-Jul-24 00:33N 39°27' W 010°05'33213.5
2016-Jul-23 00:00N 44°54' W 008°48'28114.5 350 / 121026.010.8 19.1
2016-Jul-22 04:33N 49°01' W 005°30'1312.7
2016-Jul-22 03:33N 49°07' W 005°13'1513.5
2016-Jul-22 02:27N 49°15' W 004°53'1314.7
2016-Jul-22 01:33N 49°21' W 004°36'1515.6
2016-Jul-22 00:33N 49°29' W 004°15'1017.2
2016-Jul-22 00:00N 49°30' W 004°00'818.0 170 / 101018.410.8 17.312.4
2016-Jul-21 23:33N 49°37' W 003°54'1514.9
2016-Jul-21 22:33N 49°44' W 003°34'1413.8
2016-Jul-21 21:33N 49°51' W 003°16'1312.6
2016-Jul-21 20:33N 49°58' W 002°59'1212.2
2016-Jul-21 19:34N 50°02' W 002°41'1312.5
2016-Jul-21 18:34N 50°05' W 002°22'1413.8
2016-Jul-21 17:33N 50°08' W 002°01'1615.8
2016-Jul-21 16:33N 50°12' W 001°37'1717.0
2016-Jul-21 15:33N 50°16' W 001°12'1717.2
2016-Jul-21 14:33N 50°21' W 000°46'1616.1
2016-Jul-21 13:33N 50°25' W 000°21'1514.9
2016-Jul-21 12:33N 50°29' E 000°01'1413.8
2016-Jul-21 11:33N 50°32' E 000°22'1312.9
2016-Jul-21 10:33N 50°38' E 000°41'1413.3
2016-Jul-21 09:32N 50°46' E 000°58'1515.0
2016-Jul-21 08:31N 50°55' E 001°18'1617.3
2016-Jul-21 07:34N 51°07' E 001°36'1616.2
2016-Jul-21 06:34N 51°20' E 001°51'1414.3
2016-Jul-21 05:33N 51°32' E 002°02'1313.3
2016-Jul-21 04:33N 51°42' E 002°16'1312.8
2016-Jul-21 03:33N 51°51' E 002°31'1312.5
2016-Jul-21 02:33N 52°01' E 002°45'1312.7
2016-Jul-21 01:33N 52°10' E 002°58'1313.5
2016-Jul-21 00:33N 52°21' E 003°10'1514.8
2016-Jul-20 23:33N 52°33' E 003°24'1515.4
2016-Jul-20 22:33N 52°45' E 003°41'1715.4
2016-Jul-20 21:29N 52°57' E 003°60'1414.6
2016-Jul-20 20:31N 53°07' E 004°17'1513.4
2016-Jul-20 19:25N 53°19' E 004°30'1112.5
2016-Jul-20 18:33N 53°28' E 004°40'1212.4
2016-Jul-20 17:34N 53°34' E 004°58'1313.1
2016-Jul-20 16:33N 53°39' E 005°19'1514.9
2016-Jul-20 15:33N 53°43' E 005°43'1616.0
2016-Jul-20 14:33N 53°47' E 006°09'1616.0
2016-Jul-20 13:33N 53°52' E 006°35'1515.5
2016-Jul-20 12:33N 53°56' E 007°01'1514.6
2016-Jul-20 11:33N 53°59' E 007°25'1413.6
2016-Jul-20 10:33N 54°01' E 007°48'1313.5
2016-Jul-20 09:34N 54°00' E 008°10'1312.7
2016-Jul-20 08:33N 53°58' E 008°32'1313.3
2016-Jul-20 07:33N 53°50' E 008°50'1414.5
2016-Jul-20 06:34N 53°53' E 009°14'1514.7
2016-Jul-20 05:33N 53°41' E 009°30'1111.2
2016-Jul-20 04:34N 53°34' E 009°44'7 6.7
2016-Jul-20 03:33N 53°32' E 009°55'0 0.0
2016-Jul-20 02:33N 53°32' E 009°55'0 0.0
2016-Jul-20 01:33N 53°32' E 009°55'0 0.0
2016-Jul-20 00:33N 53°32' E 009°55'0 0.0
2016-Jul-19 23:33N 53°32' E 009°55'0 0.0
2016-Jul-19 22:33N 53°32' E 009°55'0 0.0
2016-Jul-19 21:33N 53°32' E 009°55'0 0.0
2016-Jul-19 20:33N 53°32' E 009°55'0 0.0
2016-Jul-19 19:33N 53°32' E 009°55'0 0.0
2016-Jul-19 18:33N 53°32' E 009°55'0 0.0
2016-Jul-19 17:33N 53°32' E 009°55'0 0.0
2016-Jul-19 16:33N 53°32' E 009°55'0 0.0
2016-Jul-19 15:33N 53°32' E 009°55'0 0.0
2016-Jul-19 14:33N 53°32' E 009°55'0 0.0
2016-Jul-19 13:33N 53°32' E 009°55'0 0.0
2016-Jul-19 12:33N 53°32' E 009°55'0 0.0
2016-Jul-19 11:33N 53°32' E 009°55'0 0.0
2016-Jul-19 10:33N 53°32' E 009°55'0 0.0
2016-Jul-19 09:33N 53°32' E 009°55'0 0.0
2016-Jul-19 08:33N 53°32' E 009°55'0 0.0
2016-Jul-19 07:33N 53°32' E 009°55'0 0.1
2016-Jul-19 04:33N 53°32' E 009°55'6 5.9
2016-Jul-19 03:33N 53°34' E 009°45'1010.3
2016-Jul-19 02:33N 53°40' E 009°31'1312.7
2016-Jul-19 01:34N 53°51' E 009°20'1111.0
2016-Jul-19 00:34N 53°51' E 009°01'1111.0
2016-Jul-18 23:33N 53°53' E 008°43'1312.7
2016-Jul-18 22:33N 53°59' E 008°24'1111.2
2016-Jul-18 21:33N 53°60' E 008°05'3 2.6
2016-Jul-18 20:32N 54°02' E 008°07'0 0.0
2016-Jul-18 19:32N 54°02' E 008°07'0 0.0
2016-Jul-18 18:32N 54°02' E 008°07'1 1.4
2016-Jul-18 17:33N 54°02' E 008°05'1010.2
2016-Jul-18 16:34N 53°58' E 007°49'10 9.8
2016-Jul-18 15:34N 53°55' E 007°33'10 9.5
2016-Jul-18 14:33N 53°53' E 007°17'10 9.6
2016-Jul-18 13:33N 53°51' E 007°01'9 9.4
2016-Jul-18 12:33N 53°49' E 006°46'10 9.5
2016-Jul-18 11:33N 53°47' E 006°30'10 9.8
2016-Jul-18 10:34N 53°44' E 006°14'10 9.9
2016-Jul-18 09:34N 53°41' E 005°58'1010.4
2016-Jul-18 08:34N 53°37' E 005°42'1010.5
2016-Jul-18 07:34N 53°34' E 005°25'10 9.8
2016-Jul-18 06:34N 53°31' E 005°09'1010.4
2016-Jul-18 05:34N 53°27' E 004°53'1110.5
2016-Jul-18 04:34N 53°20' E 004°40'1212.1
2016-Jul-18 03:33N 53°10' E 004°29'1414.0
2016-Jul-18 02:34N 52°57' E 004°18'1414.2
2016-Jul-18 01:33N 52°45' E 004°07'1414.0
2016-Jul-18 00:33N 52°35' E 003°51'1413.7
2016-Jul-17 23:34N 52°25' E 003°35'1312.7
2016-Jul-17 22:33N 52°13' E 003°28'1212.2
2016-Jul-17 21:33N 52°01' E 003°24'1211.6
2016-Jul-17 20:33N 51°50' E 003°20'9 9.3
2016-Jul-17 19:33N 51°41' E 003°14'1313.5
2016-Jul-17 18:33N 51°30' E 003°03'10 9.7
2016-Jul-17 17:33N 51°25' E 003°17'1413.9
2016-Jul-17 16:33N 51°26' E 003°39'1211.9
2016-Jul-17 15:34N 51°25' E 003°58'1111.2
2016-Jul-17 14:33N 51°21' E 004°15'4 3.7
2016-Jul-17 13:33N 51°18' E 004°16'0 0.0
2016-Jul-17 12:33N 51°18' E 004°16'0 0.0
2016-Jul-17 11:33N 51°18' E 004°16'0 0.0
2016-Jul-17 10:33N 51°18' E 004°16'0 0.0
2016-Jul-17 09:33N 51°18' E 004°16'0 0.0
2016-Jul-17 08:33N 51°18' E 004°16'0 0.0
2016-Jul-17 07:30N 51°18' E 004°16'0 0.0
2016-Jul-17 06:33N 51°18' E 004°16'0 0.0
2016-Jul-17 04:33N 51°18' E 004°16'0 0.0
2016-Jul-17 03:33N 51°18' E 004°16'0 0.0
2016-Jul-17 02:33N 51°18' E 004°16'0 0.0
2016-Jul-17 01:33N 51°18' E 004°16'0 0.0
2016-Jul-17 00:33N 51°18' E 004°16'0 0.0
2016-Jul-16 23:33N 51°18' E 004°16'0 0.0
2016-Jul-16 22:33N 51°18' E 004°16'0 0.0
2016-Jul-16 21:33N 51°18' E 004°16'0 0.0
2016-Jul-16 20:33N 51°18' E 004°16'0 0.0
2016-Jul-16 19:33N 51°18' E 004°16'0 0.0
2016-Jul-16 18:33N 51°18' E 004°16'0 0.0
2016-Jul-16 17:33N 51°18' E 004°16'0 0.0
2016-Jul-16 16:33N 51°18' E 004°16'0 0.3
2016-Jul-16 15:34N 51°18' E 004°16'6 5.9
2016-Jul-16 14:33N 51°23' E 004°13'9 9.2
2016-Jul-16 13:33N 51°26' E 003°58'9 8.9
2016-Jul-16 12:34N 51°22' E 003°45'1312.6
2016-Jul-16 11:34N 51°25' E 003°26'1716.8
2016-Jul-16 10:33N 51°23' E 002°59'1212.3
2016-Jul-16 09:33N 51°22' E 002°39'1212.1
2016-Jul-16 08:33N 51°20' E 002°20'1615.5
2016-Jul-16 07:34N 51°25' E 001°57'1817.6
2016-Jul-16 06:34N 51°41' E 001°45'2311.3
2016-Jul-16 04:33N 51°57' E 001°19'1 1.3
2016-Jul-16 03:33N 51°58' E 001°17'0 0.0
2016-Jul-16 02:32N 51°58' E 001°17'0 0.0
2016-Jul-16 01:32N 51°58' E 001°17'0 0.0
2016-Jul-16 00:32N 51°58' E 001°17'0 0.0
2016-Jul-15 23:32N 51°58' E 001°17'0 0.0
2016-Jul-15 22:32N 51°58' E 001°17'0 0.0
2016-Jul-15 21:32N 51°58' E 001°17'0 0.0
2016-Jul-15 20:32N 51°58' E 001°17'0 0.0
2016-Jul-15 19:29N 51°58' E 001°17'0 0.0
2016-Jul-15 18:32N 51°58' E 001°17'  

Dump ship's entire track history